Moundridge, Kansas
Current Conditions -  °F | °C
As of 3:55 PM on Friday 28 Nov 2014 (Local Time) from KEWK Reporting Station
Clear Clear  
Wind Chill: 59°   Ceiling: Unl
Heat Index: 59°   Visibility: 10mi
Dew Point: 34°   Wind: 16mph
Humidity: 39%   Direction: 200°SSW
Pressure: 29.82"   Gusts: 23mph
Location:  38.2°N, 97.52°W
Report Text: KEWK 282155Z AUTO 20014G20KT 10SM CLR 15/01 A2982 RMK AO1
Loading
Personal Weather Stations






























Interactive Weather Map New forecast layout! Learn more

10-Day Weather Forecast

Advertisements
Track Severe Weather on mobile